createdAt,value
2017-09-18T00:00:01.115Z,62.80
2017-09-18T00:02:27.259Z,62.90
2017-09-18T00:04:53.407Z,62.10
2017-09-18T00:07:20.310Z,62.80
2017-09-18T00:09:46.450Z,62.80
2017-09-18T00:12:13.346Z,62.10
2017-09-18T00:14:39.495Z,62.00
2017-09-18T00:17:06.406Z,62.00
2017-09-18T00:19:32.559Z,62.00
2017-09-18T00:21:58.725Z,62.80
2017-09-18T00:24:24.875Z,63.10
2017-09-18T00:26:51.049Z,62.20
2017-09-18T00:29:17.192Z,62.00
2017-09-18T00:31:44.139Z,62.70
2017-09-18T00:34:10.312Z,62.70
2017-09-18T00:36:36.462Z,62.90
2017-09-18T00:39:02.626Z,62.70
2017-09-18T00:41:28.760Z,62.40
2017-09-18T00:43:55.666Z,62.90
2017-09-18T00:46:21.873Z,62.90
2017-09-18T00:48:48.038Z,63.20
2017-09-18T00:51:14.187Z,65.20
2017-09-18T00:53:40.338Z,64.00
2017-09-18T00:56:07.270Z,64.50
2017-09-18T00:58:33.469Z,64.50
2017-09-18T01:00:59.619Z,65.00
2017-09-18T01:03:25.818Z,65.00
2017-09-18T01:05:51.991Z,64.80
2017-09-18T01:08:18.141Z,65.10
2017-09-18T01:10:44.315Z,65.00
2017-09-18T01:13:10.486Z,65.20
2017-09-18T01:15:36.676Z,65.80
2017-09-18T01:18:02.860Z,66.10
2017-09-18T01:20:29.028Z,65.70
2017-09-18T01:22:55.948Z,65.10
2017-09-18T01:25:22.107Z,65.10
2017-09-18T01:27:48.282Z,64.90
2017-09-18T01:30:14.422Z,63.90
2017-09-18T01:32:40.586Z,64.70
2017-09-18T01:35:06.725Z,64.60
2017-09-18T01:37:32.872Z,64.60
2017-09-18T01:39:59.012Z,64.80
2017-09-18T01:42:25.211Z,64.50
2017-09-18T01:44:52.116Z,64.60
2017-09-18T01:47:18.335Z,64.60
2017-09-18T01:49:44.499Z,65.20
2017-09-18T01:52:12.765Z,66.40
2017-09-18T01:54:38.906Z,65.60
2017-09-18T01:57:05.055Z,65.10
2017-09-18T01:59:31.956Z,64.60
2017-09-18T02:01:58.098Z,64.50
2017-09-18T02:04:24.993Z,64.80
2017-09-18T02:06:51.136Z,64.80
2017-09-18T02:09:17.368Z,64.60
2017-09-18T02:11:43.529Z,65.00
2017-09-18T02:14:09.712Z,65.40
2017-09-18T02:16:35.852Z,65.80
2017-09-18T02:19:02.089Z,66.00
2017-09-18T02:21:28.208Z,67.10
2017-09-18T02:23:55.110Z,66.40
2017-09-18T02:26:21.246Z,66.30
2017-09-18T02:28:48.139Z,66.30
2017-09-18T02:31:14.285Z,66.30
2017-09-18T02:33:41.183Z,66.30
2017-09-18T02:36:07.352Z,66.30
2017-09-18T02:38:33.499Z,66.70
2017-09-18T02:40:59.680Z,66.80
2017-09-18T02:43:26.556Z,67.00
2017-09-18T02:45:52.711Z,67.10
2017-09-18T02:48:18.882Z,67.30
2017-09-18T02:50:45.035Z,67.10
2017-09-18T02:53:11.160Z,67.10
2017-09-18T02:55:37.332Z,67.60
2017-09-18T02:58:04.200Z,67.50
2017-09-18T03:00:30.365Z,67.50
2017-09-18T03:02:56.510Z,67.10
2017-09-18T03:05:22.654Z,67.80
2017-09-18T03:07:48.827Z,68.10
2017-09-18T03:10:14.954Z,68.10
2017-09-18T03:12:41.103Z,68.20
2017-09-18T03:15:07.292Z,68.40
2017-09-18T03:17:33.459Z,68.20
2017-09-18T03:20:00.375Z,68.30
2017-09-18T03:22:27.296Z,68.80
2017-09-18T03:24:53.469Z,68.80
2017-09-18T03:27:19.647Z,69.10
2017-09-18T03:29:46.555Z,68.50
2017-09-18T03:32:12.736Z,68.50
2017-09-18T03:34:38.931Z,68.20
2017-09-18T03:37:05.102Z,68.30
2017-09-18T03:39:32.023Z,68.30
2017-09-18T03:41:58.178Z,68.20
2017-09-18T03:44:24.362Z,68.30
2017-09-18T03:46:51.260Z,69.30
2017-09-18T03:49:17.476Z,69.30
2017-09-18T03:51:43.659Z,68.90
2017-09-18T03:54:10.610Z,70.30
2017-09-18T03:56:36.807Z,70.30
2017-09-18T03:59:02.995Z,70.30
2017-09-18T04:01:29.162Z,70.80
2017-09-18T04:03:55.307Z,71.00
2017-09-18T04:06:21.576Z,71.00
2017-09-18T04:08:47.747Z,71.20
2017-09-18T04:11:14.947Z,71.30
2017-09-18T04:13:41.118Z,71.40
2017-09-18T04:16:07.306Z,71.60
2017-09-18T04:18:33.451Z,71.90
2017-09-18T04:20:59.624Z,71.90
2017-09-18T04:23:26.048Z,72.00
2017-09-18T04:25:52.259Z,72.00
2017-09-18T04:28:20.584Z,72.20
2017-09-18T04:30:48.047Z,73.20
2017-09-18T04:33:14.958Z,72.70
2017-09-18T04:35:41.111Z,72.70
2017-09-18T04:38:07.275Z,72.70
2017-09-18T04:40:33.411Z,72.70
2017-09-18T04:43:00.345Z,72.90
2017-09-18T04:45:26.506Z,72.90
2017-09-18T04:47:52.697Z,72.70
2017-09-18T04:50:18.939Z,72.80
2017-09-18T04:52:45.906Z,73.10
2017-09-18T04:55:12.801Z,72.40
2017-09-18T04:57:38.982Z,72.40
2017-09-18T05:00:05.131Z,72.20
2017-09-18T05:02:31.307Z,72.40
2017-09-18T05:04:57.443Z,72.30
2017-09-18T05:07:23.577Z,72.20
2017-09-18T05:09:49.743Z,72.10
2017-09-18T05:12:16.695Z,72.00
2017-09-18T05:14:43.823Z,72.40
2017-09-18T05:17:10.036Z,72.40
2017-09-18T05:19:36.175Z,72.60
2017-09-18T05:22:02.295Z,73.00
2017-09-18T05:24:28.458Z,73.20
2017-09-18T05:26:54.623Z,73.70
2017-09-18T05:29:21.678Z,73.20
2017-09-18T05:31:47.844Z,73.20
2017-09-18T05:34:14.059Z,73.20
2017-09-18T05:36:40.202Z,73.40
2017-09-18T05:39:06.393Z,73.00
2017-09-18T05:41:32.556Z,73.20
2017-09-18T05:44:00.818Z,73.20
2017-09-18T05:46:33.653Z,72.90
2017-09-18T05:49:00.599Z,73.10
2017-09-18T05:51:26.722Z,73.10
2017-09-18T05:53:52.859Z,72.90
2017-09-18T05:56:19.031Z,72.70
2017-09-18T05:58:45.226Z,72.90
2017-09-18T06:01:12.277Z,72.90
2017-09-18T06:03:38.503Z,72.90
2017-09-18T06:06:04.663Z,73.10
2017-09-18T06:08:30.820Z,72.70
2017-09-18T06:10:56.999Z,72.60
2017-09-18T06:13:23.888Z,72.40
2017-09-18T06:15:50.092Z,72.40
2017-09-18T06:18:16.269Z,72.30
2017-09-18T06:20:43.170Z,72.10
2017-09-18T06:23:09.323Z,72.10
2017-09-18T06:25:35.475Z,72.10
2017-09-18T06:28:01.659Z,72.00
2017-09-18T06:30:27.825Z,71.90
2017-09-18T06:32:54.002Z,71.80
2017-09-18T06:35:20.161Z,73.10
2017-09-18T06:37:46.389Z,71.90
2017-09-18T06:40:12.562Z,72.50
2017-09-18T06:42:38.756Z,71.80
2017-09-18T06:45:04.983Z,71.30
2017-09-18T06:47:31.160Z,70.20
2017-09-18T06:49:57.351Z,70.10
2017-09-18T06:52:23.527Z,69.80
2017-09-18T06:54:49.752Z,69.70
2017-09-18T06:57:15.891Z,69.40
2017-09-18T06:59:42.129Z,69.20
2017-09-18T07:02:08.313Z,68.50
2017-09-18T07:04:34.472Z,68.40
2017-09-18T07:07:00.656Z,68.00
2017-09-18T07:09:26.819Z,67.90
2017-09-18T07:11:52.975Z,67.80
2017-09-18T07:14:19.190Z,67.40
2017-09-18T07:16:45.369Z,67.40
2017-09-18T07:19:12.316Z,67.50
2017-09-18T07:21:39.267Z,67.50
2017-09-18T07:24:05.431Z,67.50
2017-09-18T07:26:31.586Z,67.20
2017-09-18T07:28:57.731Z,66.80
2017-09-18T07:31:23.919Z,67.10
2017-09-18T07:33:50.074Z,66.90
2017-09-18T07:36:16.640Z,66.90
2017-09-18T07:38:42.796Z,66.90
2017-09-18T07:41:08.970Z,66.70
2017-09-18T07:43:35.144Z,66.70
2017-09-18T07:46:01.331Z,66.50
2017-09-18T07:48:27.578Z,66.00
2017-09-18T07:50:54.516Z,65.60
2017-09-18T07:53:21.412Z,65.10
2017-09-18T07:55:47.568Z,65.10
2017-09-18T07:58:13.724Z,65.00
2017-09-18T08:00:39.875Z,64.00
2017-09-18T08:03:06.827Z,64.00
2017-09-18T08:05:32.980Z,64.00
2017-09-18T08:07:59.176Z,64.00
2017-09-18T08:10:25.342Z,64.00
2017-09-18T08:12:52.279Z,64.20
2017-09-18T08:15:18.455Z,64.20
2017-09-18T08:17:44.600Z,63.80
2017-09-18T08:20:11.501Z,63.00
2017-09-18T08:22:37.687Z,63.10
2017-09-18T08:25:03.869Z,62.70
2017-09-18T08:27:30.061Z,62.60
2017-09-18T08:29:56.943Z,61.00
2017-09-18T08:32:23.107Z,61.00
2017-09-18T08:34:50.023Z,61.30
2017-09-18T08:37:16.207Z,61.30
2017-09-18T08:39:42.347Z,60.60
2017-09-18T08:42:08.517Z,60.00
2017-09-18T08:44:35.710Z,59.80
2017-09-18T08:47:02.631Z,60.90
2017-09-18T08:49:28.743Z,60.10
2017-09-18T08:51:55.637Z,59.60
2017-09-18T08:54:21.777Z,59.60
2017-09-18T08:56:47.927Z,59.70
2017-09-18T08:59:14.118Z,59.50
2017-09-18T09:01:40.991Z,60.30
2017-09-18T09:04:07.155Z,60.30
2017-09-18T09:06:34.037Z,60.30
2017-09-18T09:09:00.257Z,60.20
2017-09-18T09:11:26.431Z,60.20
2017-09-18T09:16:24.473Z,59.90
2017-09-18T09:18:50.623Z,59.90
2017-09-18T09:21:16.754Z,59.40
2017-09-18T09:23:42.895Z,59.10
2017-09-18T09:26:09.094Z,58.50
2017-09-18T09:28:35.273Z,58.70
2017-09-18T09:31:01.520Z,58.30
2017-09-18T09:33:27.686Z,57.90
2017-09-18T09:35:53.826Z,56.80
2017-09-18T09:38:19.966Z,56.50
2017-09-18T09:40:46.103Z,56.20
2017-09-18T09:43:12.894Z,56.20
2017-09-18T09:45:39.126Z,55.40
2017-09-18T09:48:06.024Z,55.50
2017-09-18T09:50:32.197Z,55.50
2017-09-18T09:52:58.370Z,55.10
2017-09-18T09:55:24.534Z,54.30
2017-09-18T09:57:50.724Z,54.40
2017-09-18T10:00:16.861Z,54.10
2017-09-18T10:02:43.020Z,53.90
2017-09-18T10:05:09.171Z,54.00
2017-09-18T10:07:35.318Z,53.60
2017-09-18T10:10:01.483Z,53.40
2017-09-18T10:12:27.631Z,53.20
2017-09-18T10:14:53.814Z,53.60
2017-09-18T10:17:19.942Z,53.20
2017-09-18T10:19:46.120Z,53.50
2017-09-18T10:22:13.022Z,52.70
2017-09-18T10:24:39.168Z,52.70
2017-09-18T10:27:06.043Z,52.70
2017-09-18T10:29:32.166Z,52.70
2017-09-18T10:31:58.313Z,52.50
2017-09-18T10:34:24.447Z,52.10
2017-09-18T10:36:50.586Z,52.10
2017-09-18T10:39:16.987Z,51.00
2017-09-18T10:41:43.148Z,51.00
2017-09-18T10:44:10.050Z,50.10
2017-09-18T10:46:36.206Z,50.80
2017-09-18T10:49:02.375Z,49.30
2017-09-18T10:51:28.511Z,48.40
2017-09-18T10:53:55.415Z,49.00
2017-09-18T10:56:21.559Z,49.10
2017-09-18T10:58:49.287Z,49.20
2017-09-18T11:01:15.427Z,49.10
2017-09-18T11:03:42.603Z,50.90
2017-09-18T11:06:08.764Z,50.90
2017-09-18T11:08:35.659Z,51.20
2017-09-18T11:11:01.778Z,51.10
2017-09-18T11:13:27.937Z,51.50
2017-09-18T11:15:54.073Z,52.70
2017-09-18T11:18:20.227Z,53.50
2017-09-18T11:20:46.366Z,53.10
2017-09-18T11:23:12.492Z,53.60
2017-09-18T11:25:38.639Z,53.20
2017-09-18T11:28:04.807Z,54.80
2017-09-18T11:30:30.967Z,57.30
2017-09-18T11:32:57.228Z,57.50
2017-09-18T11:35:23.424Z,57.70
2017-09-18T11:37:49.684Z,59.60
2017-09-18T11:40:15.908Z,61.00
2017-09-18T11:42:42.091Z,61.30
2017-09-18T11:45:08.608Z,62.20
2017-09-18T11:47:34.811Z,61.30
2017-09-18T11:50:00.959Z,60.10
2017-09-18T11:52:27.193Z,62.40
2017-09-18T11:54:53.358Z,61.50
2017-09-18T11:57:19.518Z,58.30
2017-09-18T11:59:45.697Z,61.60
2017-09-18T12:02:11.831Z,60.70
2017-09-18T12:04:37.982Z,57.40
2017-09-18T12:07:04.858Z,55.50
2017-09-18T12:09:30.997Z,55.50
2017-09-18T12:11:57.122Z,55.70
2017-09-18T12:14:23.285Z,53.90
2017-09-18T12:16:49.458Z,55.10
2017-09-18T12:19:16.403Z,53.50
2017-09-18T12:21:42.679Z,53.50
2017-09-18T12:24:08.803Z,54.40
2017-09-18T12:26:34.982Z,51.70
2017-09-18T12:29:01.098Z,51.70
2017-09-18T12:31:27.317Z,49.00
2017-09-18T12:33:53.519Z,53.40
2017-09-18T12:36:19.720Z,47.70
2017-09-18T12:38:45.860Z,48.20
2017-09-18T12:41:12.014Z,47.00
2017-09-18T12:43:38.155Z,46.90
2017-09-18T12:46:04.345Z,45.20
2017-09-18T12:48:30.487Z,45.40
2017-09-18T12:50:56.647Z,44.40
2017-09-18T12:53:22.782Z,45.00
2017-09-18T12:55:48.952Z,45.50
2017-09-18T12:58:16.297Z,45.80
2017-09-18T13:00:43.219Z,44.30
2017-09-18T13:03:10.384Z,44.10
2017-09-18T13:05:36.568Z,44.90
2017-09-18T13:08:02.735Z,45.70
2017-09-18T13:10:28.898Z,45.80
2017-09-18T13:12:55.040Z,45.10
2017-09-18T13:15:21.243Z,44.50
2017-09-18T13:17:47.428Z,44.20
2017-09-18T13:20:13.611Z,46.00
2017-09-18T13:22:39.791Z,44.90
2017-09-18T13:25:05.971Z,43.40
2017-09-18T13:27:32.143Z,41.10
2017-09-18T13:29:58.480Z,41.80
2017-09-18T13:32:25.711Z,40.50
2017-09-18T13:34:51.865Z,42.20
2017-09-18T13:37:18.172Z,42.40
2017-09-18T13:39:45.055Z,42.20
2017-09-18T13:42:11.207Z,42.20
2017-09-18T13:44:37.392Z,42.30
2017-09-18T13:47:10.204Z,42.40
2017-09-18T13:49:37.095Z,43.50
2017-09-18T13:52:03.277Z,43.50
2017-09-18T13:54:29.406Z,43.60
2017-09-18T13:56:55.572Z,44.90
2017-09-18T13:59:21.822Z,43.90
2017-09-18T14:01:47.979Z,44.00
2017-09-18T14:04:14.186Z,43.90
2017-09-18T14:06:40.344Z,44.00
2017-09-18T14:09:06.553Z,43.40
2017-09-18T14:11:32.707Z,44.90
2017-09-18T14:13:58.862Z,44.30
2017-09-18T14:16:25.034Z,44.10
2017-09-18T14:18:51.218Z,44.00
2017-09-18T14:21:17.404Z,44.50
2017-09-18T14:23:43.561Z,43.90
2017-09-18T14:26:09.712Z,44.70
2017-09-18T14:28:36.626Z,44.00
2017-09-18T14:31:02.776Z,43.20
2017-09-18T14:33:29.010Z,42.90
2017-09-18T14:35:55.184Z,42.80
2017-09-18T14:38:21.359Z,42.60
2017-09-18T14:40:47.544Z,43.00
2017-09-18T14:43:14.035Z,42.00
2017-09-18T14:45:40.201Z,41.40
2017-09-18T14:48:06.455Z,40.10
2017-09-18T14:50:33.267Z,38.50
2017-09-18T14:52:59.477Z,38.60
2017-09-18T14:55:26.690Z,38.50
2017-09-18T14:57:52.851Z,38.50
2017-09-18T15:00:18.987Z,38.50
2017-09-18T15:02:45.892Z,38.60
2017-09-18T15:05:12.050Z,38.60
2017-09-18T15:07:40.090Z,38.50
2017-09-18T15:10:06.248Z,38.40
2017-09-18T15:12:33.155Z,38.30
2017-09-18T15:14:59.293Z,38.30
2017-09-18T15:17:26.259Z,39.40
2017-09-18T15:19:52.418Z,39.30
2017-09-18T15:22:18.578Z,38.50
2017-09-18T15:24:44.740Z,38.10
2017-09-18T15:27:10.888Z,38.40
2017-09-18T15:29:37.038Z,38.30
2017-09-18T15:32:03.236Z,38.20
2017-09-18T15:34:29.367Z,39.40
2017-09-18T15:36:55.515Z,39.40
2017-09-18T15:39:22.430Z,40.00
2017-09-18T15:41:48.573Z,40.10
2017-09-18T15:44:14.723Z,40.30
2017-09-18T15:46:40.869Z,40.80
2017-09-18T15:49:07.044Z,40.80
2017-09-18T15:51:33.926Z,39.60
2017-09-18T15:54:00.826Z,39.50
2017-09-18T15:56:26.974Z,39.40
2017-09-18T15:58:53.948Z,38.40
2017-09-18T16:01:20.092Z,38.90
2017-09-18T16:03:46.260Z,38.40
2017-09-18T16:06:12.411Z,39.00
2017-09-18T16:08:38.554Z,38.10
2017-09-18T16:11:04.684Z,39.00
2017-09-18T16:13:31.415Z,39.50
2017-09-18T16:15:58.714Z,39.30
2017-09-18T16:18:24.858Z,40.20
2017-09-18T16:20:51.000Z,39.90
2017-09-18T16:23:17.196Z,40.10
2017-09-18T16:25:43.419Z,40.10
2017-09-18T16:28:09.575Z,39.80
2017-09-18T16:30:35.712Z,40.20
2017-09-18T16:33:01.867Z,40.90
2017-09-18T16:35:28.029Z,40.70
2017-09-18T16:37:54.202Z,40.70
2017-09-18T16:40:20.363Z,41.00
2017-09-18T16:42:46.512Z,41.80
2017-09-18T16:45:12.671Z,41.50
2017-09-18T16:47:39.542Z,41.90
2017-09-18T16:50:05.729Z,42.60
2017-09-18T16:52:31.858Z,42.10
2017-09-18T16:54:58.040Z,42.10
2017-09-18T16:57:24.221Z,42.80
2017-09-18T16:59:50.458Z,42.90
2017-09-18T17:02:16.592Z,43.40
2017-09-18T17:04:42.752Z,43.80
2017-09-18T17:07:08.902Z,45.10
2017-09-18T17:09:35.078Z,45.60
2017-09-18T17:12:01.202Z,46.90
2017-09-18T17:14:27.391Z,46.80
2017-09-18T17:16:53.549Z,47.40
2017-09-18T17:19:20.443Z,47.20
2017-09-18T17:21:46.570Z,47.20
2017-09-18T17:24:13.483Z,50.80
2017-09-18T17:26:39.611Z,50.80
2017-09-18T17:29:06.530Z,51.50
2017-09-18T17:31:32.671Z,51.50
2017-09-18T17:33:58.812Z,51.10
2017-09-18T17:36:24.951Z,50.30
2017-09-18T17:38:51.147Z,51.00
2017-09-18T17:41:17.286Z,50.10
2017-09-18T17:43:43.430Z,51.00
2017-09-18T17:46:10.665Z,50.50
2017-09-18T17:48:36.814Z,51.20
2017-09-18T17:51:03.024Z,52.10
2017-09-18T17:53:29.215Z,51.70
2017-09-18T17:55:55.369Z,51.10
2017-09-18T17:58:21.520Z,49.80
2017-09-18T18:00:48.449Z,47.30
2017-09-18T18:03:15.344Z,47.70
2017-09-18T18:05:41.515Z,47.60
2017-09-18T18:08:07.678Z,47.80
2017-09-18T18:10:33.831Z,48.00
2017-09-18T18:13:00.016Z,48.80
2017-09-18T18:15:26.927Z,51.30
2017-09-18T18:17:53.062Z,52.00
2017-09-18T18:20:19.203Z,51.20
2017-09-18T18:22:45.324Z,52.00
2017-09-18T18:25:11.479Z,52.30
2017-09-18T18:27:37.637Z,51.70
2017-09-18T18:30:03.932Z,52.00
2017-09-18T18:32:30.114Z,52.10
2017-09-18T18:34:56.244Z,53.60
2017-09-18T18:37:23.160Z,57.50
2017-09-18T18:39:49.374Z,57.50
2017-09-18T18:42:15.531Z,57.50
2017-09-18T18:44:41.795Z,58.20
2017-09-18T18:47:07.930Z,58.40
2017-09-18T18:49:34.068Z,58.80
2017-09-18T18:52:00.195Z,59.50
2017-09-18T18:54:26.326Z,59.40
2017-09-18T18:56:54.579Z,59.30
2017-09-18T18:59:20.840Z,59.80
2017-09-18T19:01:46.982Z,60.00
2017-09-18T19:04:13.123Z,60.70
2017-09-18T19:06:39.286Z,62.70
2017-09-18T19:09:06.150Z,62.40
2017-09-18T19:11:32.317Z,62.40
2017-09-18T19:13:58.491Z,63.30
2017-09-18T19:16:24.688Z,64.70
2017-09-18T19:18:50.890Z,64.40
2017-09-18T19:21:17.111Z,64.60
2017-09-18T19:23:43.374Z,64.60
2017-09-18T19:26:09.500Z,64.60
2017-09-18T19:28:35.651Z,64.60
2017-09-18T19:31:01.800Z,64.50
2017-09-18T19:33:28.680Z,65.20
2017-09-18T19:35:54.814Z,65.20
2017-09-18T19:38:20.972Z,65.70
2017-09-18T19:40:47.148Z,66.30
2017-09-18T19:43:13.271Z,64.80
2017-09-18T19:45:39.455Z,64.30
2017-09-18T19:48:05.583Z,64.40
2017-09-18T19:50:31.751Z,64.30
2017-09-18T19:52:57.869Z,64.30
2017-09-18T19:55:24.023Z,64.40
2017-09-18T19:57:50.141Z,64.40
2017-09-18T20:00:16.290Z,64.30
2017-09-18T20:02:42.419Z,63.80
2017-09-18T20:05:09.587Z,63.40
2017-09-18T20:07:35.750Z,62.90
2017-09-18T20:10:01.983Z,63.10
2017-09-18T20:12:28.139Z,62.90
2017-09-18T20:14:54.265Z,63.70
2017-09-18T20:17:20.405Z,61.90
2017-09-18T20:19:46.536Z,63.20
2017-09-18T20:22:12.674Z,64.40
2017-09-18T20:24:38.838Z,63.10
2017-09-18T20:27:05.056Z,63.20
2017-09-18T20:29:31.210Z,64.30
2017-09-18T20:31:58.801Z,64.40
2017-09-18T20:34:25.149Z,65.40
2017-09-18T20:36:51.318Z,65.60
2017-09-18T20:39:18.072Z,66.30
2017-09-18T20:41:44.243Z,66.20
2017-09-18T20:44:11.134Z,66.50
2017-09-18T20:46:37.329Z,66.40
2017-09-18T20:49:03.511Z,66.70
2017-09-18T20:51:29.679Z,66.70
2017-09-18T20:53:55.810Z,66.80
2017-09-18T20:56:21.958Z,66.80
2017-09-18T20:58:48.087Z,67.30
2017-09-18T21:01:14.214Z,67.50
2017-09-18T21:03:40.370Z,67.90
2017-09-18T21:06:06.531Z,68.80
2017-09-18T21:08:32.909Z,68.80
2017-09-18T21:10:59.063Z,67.80
2017-09-18T21:13:25.200Z,67.40
2017-09-18T21:15:51.519Z,67.20
2017-09-18T21:18:18.424Z,66.90
2017-09-18T21:20:44.557Z,66.90
2017-09-18T21:23:10.708Z,66.70
2017-09-18T21:25:39.810Z,66.00
2017-09-18T21:28:06.044Z,66.60
2017-09-18T21:30:32.223Z,66.80
2017-09-18T21:32:59.092Z,66.30
2017-09-18T21:35:25.991Z,66.20
2017-09-18T21:37:52.169Z,66.10
2017-09-18T21:40:18.300Z,66.20
2017-09-18T21:42:44.451Z,65.40
2017-09-18T21:45:10.600Z,66.70
2017-09-18T21:47:36.756Z,66.60
2017-09-18T21:50:03.829Z,66.20
2017-09-18T21:52:29.960Z,66.20
2017-09-18T21:54:56.124Z,66.80
2017-09-18T21:57:22.336Z,66.90
2017-09-18T21:59:48.494Z,66.60
2017-09-18T22:02:15.370Z,66.30
2017-09-18T22:04:41.527Z,66.30
2017-09-18T22:07:08.400Z,65.50
2017-09-18T22:09:34.607Z,65.40
2017-09-18T22:12:00.738Z,65.70
2017-09-18T22:14:26.879Z,65.10
2017-09-18T22:16:53.070Z,65.80
2017-09-18T22:19:19.480Z,65.70
2017-09-18T22:21:45.649Z,66.60
2017-09-18T22:24:11.807Z,66.50
2017-09-18T22:26:37.987Z,66.20
2017-09-18T22:29:04.104Z,67.10
2017-09-18T22:31:30.242Z,67.90
2017-09-18T22:33:56.373Z,67.80
2017-09-18T22:36:22.634Z,67.30
2017-09-18T22:38:48.751Z,67.10
2017-09-18T22:41:14.886Z,67.50
2017-09-18T22:43:41.477Z,67.30
2017-09-18T22:46:07.587Z,67.20
2017-09-18T22:48:33.724Z,67.20
2017-09-18T22:50:59.889Z,67.10
2017-09-18T22:53:26.031Z,66.90
2017-09-18T22:55:52.159Z,67.50
2017-09-18T22:58:18.296Z,68.20
2017-09-18T23:00:44.434Z,68.10
2017-09-18T23:03:10.587Z,67.90
2017-09-18T23:05:36.724Z,68.20
2017-09-18T23:08:02.871Z,68.50
2017-09-18T23:10:28.991Z,68.40
2017-09-18T23:12:55.134Z,69.30
2017-09-18T23:15:21.295Z,69.10
2017-09-18T23:17:48.217Z,68.70
2017-09-18T23:20:15.086Z,68.80
2017-09-18T23:22:41.236Z,67.80
2017-09-18T23:25:07.405Z,68.40
2017-09-18T23:27:33.511Z,68.40
2017-09-18T23:29:59.663Z,68.50
2017-09-18T23:32:25.803Z,68.60
2017-09-18T23:34:52.030Z,68.40
2017-09-18T23:37:18.155Z,68.60
2017-09-18T23:39:44.297Z,69.10
2017-09-18T23:42:10.436Z,69.50
2017-09-18T23:44:36.586Z,69.90
2017-09-18T23:47:02.702Z,69.40
2017-09-18T23:49:28.859Z,70.00
2017-09-18T23:51:54.997Z,70.50
2017-09-18T23:54:21.879Z,70.20
2017-09-18T23:56:48.113Z,70.10
2017-09-18T23:59:14.267Z,70.40
